Anton, CO

9:37 AM MDT on March 24, 2017 (GMT -0600)
Anton Coop Fertilizer | | Change Station
Active Advisory: Winter Weather Advisory Active Notice: Public Information Statement

Elev 4875 ft 39.74 °N, 103.22 °W | Updated 12 seconds ago

Snow
Snow
37.6 °F
Feels Like 25 °F
N
32.2
Wind Variable Wind from NW
Gusts 37.4 mph

Today
High -- | Low -- °F
--% Chance of Precip.
Yesterday
High -- | Low -- °F
Precip. -- in
Pressure 29.90 in
Visibility 8.0 miles
Clouds Overcast 900 ft
Windchill 25 °F
Dew Point 37 °F
Humidity 97%
Rainfall 0.81 in
Snow Depth Not available.
6:49 AM 7:09 PM
Waning Crescent, 14% visible
METAR KAKO 241453Z AUTO 36028G38KT 8SM -SN OVC009 03/02 A2994 RMK AO2 PK WND 01042/1408 RAB16E39SNE16B39 CIG 006V012 SLP124 P0001 60013 T00330017 51035
Pressure 29.90 in
Visibility 8.0 miles
Clouds Overcast 900 ft
Windchill 25 °F
Dew Point 37 °F
Humidity 97%
Rainfall 0.81 in
Snow Depth Not available.
6:49 AM 7:09 PM
Waning Crescent, 14% visible
METAR KAKO 241453Z AUTO 36028G38KT 8SM -SN OVC009 03/02 A2994 RMK AO2 PK WND 01042/1408 RAB16E39SNE16B39 CIG 006V012 SLP124 P0001 60013 T00330017 51035

Get Your Daily Forecast Email!

Thanks for signing up!

Be on the lookout for a verification email in your inbox.

You'll start receiving severe weather alerts in your inbox..

×

10-Day Weather Forecast

Almanac

Astronomy

Mar. 24, 2017 Rise Set
Actual Time
Civil Twilight
Nautical Twilight
Astronomical Twilight
Moon
Length of Visible Light
Length of Day
Tomorrow will be .
, % of the Moon is Illuminated

Today's Extremes

State Highs State Lows

Community

WunderPhotos

Upload Photos

1,962,540 photos uploaded!

WunderBlog® & News

Nearby

Air Quality

  Air Quality AQ Index Pollutant
Not available.

Snow Depth

Station Depth Elevation

Earthquake Activity

City Distance Mag. Time & Date
Minimum magnitude displayed is 2.5.

Earthquake Activity

City Distance Mag. Time & Date
Minimum magnitude displayed is 2.5.

Coastal Water Temperatures

Place Temperature

Stations

Nearby Weather Stations

Station Location Temp. Windchill Dew Point Humidity Wind Precip. Elev Updated Type
                   

Watches & Warnings

Winter Weather Advisory
Issued: 8:42 AM MDT Mar. 24, 2017 – National Weather Service

... Winter Weather Advisory remains in effect until noon MDT
today...

* timing... bands of light rain and snow will continue through
late morning. The heavier snow will be across southern and
southwest portions of Washington counties.

* Snow accumulations... 1 to 4 inches.

* Wind/visibility... north 20 to 35 mph with gusts to 45 mph.
Visibilities could be under one quarter of a mile in heavier
snow.

* Impacts... snow, gusty winds and poor visibilities will create
hazardous winter driving conditions. Roads will be icy and
snow packed.

Precautionary/preparedness actions...

A Winter Weather Advisory for snow means that periods of snow
will cause primarily travel difficulties. Be prepared for snow
covered roa